sensor_id;sensor_type;location;lat;lon;timestamp;P1;durP1;ratioP1;P2;durP2;ratioP2
18411;SDS011;27097;51.738;19.472;2022-11-25T00:01:53;25.70;;;11.68;;
18411;SDS011;27097;51.738;19.472;2022-11-25T00:04:20;25.05;;;11.93;;
18411;SDS011;27097;51.738;19.472;2022-11-25T00:06:47;24.65;;;11.40;;
18411;SDS011;27097;51.738;19.472;2022-11-25T00:09:14;28.10;;;11.02;;
18411;SDS011;27097;51.738;19.472;2022-11-25T00:11:41;23.23;;;11.27;;
18411;SDS011;27097;51.738;19.472;2022-11-25T00:14:09;26.75;;;11.35;;
18411;SDS011;27097;51.738;19.472;2022-11-25T00:16:40;28.52;;;11.65;;
18411;SDS011;27097;51.738;19.472;2022-11-25T00:19:08;23.52;;;11.35;;
18411;SDS011;27097;51.738;19.472;2022-11-25T00:21:35;26.05;;;11.93;;
18411;SDS011;27097;51.738;19.472;2022-11-25T00:24:03;23.95;;;11.07;;
18411;SDS011;27097;51.738;19.472;2022-11-25T00:26:31;26.25;;;11.57;;
18411;SDS011;27097;51.738;19.472;2022-11-25T00:29:00;25.50;;;11.40;;
18411;SDS011;27097;51.738;19.472;2022-11-25T00:31:29;26.33;;;11.95;;
18411;SDS011;27097;51.738;19.472;2022-11-25T00:33:58;27.92;;;12.15;;
18411;SDS011;27097;51.738;19.472;2022-11-25T00:36:26;27.35;;;11.50;;
18411;SDS011;27097;51.738;19.472;2022-11-25T00:38:55;23.83;;;11.70;;
18411;SDS011;27097;51.738;19.472;2022-11-25T00:41:23;30.38;;;12.10;;
18411;SDS011;27097;51.738;19.472;2022-11-25T00:44:09;26.50;;;11.23;;
18411;SDS011;27097;51.738;19.472;2022-11-25T00:46:56;27.60;;;11.07;;
18411;SDS011;27097;51.738;19.472;2022-11-25T00:49:24;22.23;;;11.02;;
18411;SDS011;27097;51.738;19.472;2022-11-25T00:51:51;25.77;;;11.50;;
18411;SDS011;27097;51.738;19.472;2022-11-25T00:54:18;24.63;;;11.70;;
18411;SDS011;27097;51.738;19.472;2022-11-25T00:56:45;24.45;;;10.88;;
18411;SDS011;27097;51.738;19.472;2022-11-25T00:59:12;22.33;;;10.55;;
18411;SDS011;27097;51.738;19.472;2022-11-25T01:01:39;26.38;;;11.38;;
18411;SDS011;27097;51.738;19.472;2022-11-25T01:04:07;27.33;;;12.20;;
18411;SDS011;27097;51.738;19.472;2022-11-25T01:06:35;25.75;;;11.43;;
18411;SDS011;27097;51.738;19.472;2022-11-25T01:09:03;25.40;;;12.13;;
18411;SDS011;27097;51.738;19.472;2022-11-25T01:11:31;26.92;;;11.75;;
18411;SDS011;27097;51.738;19.472;2022-11-25T01:13:58;24.13;;;11.23;;
18411;SDS011;27097;51.738;19.472;2022-11-25T01:16:25;27.50;;;12.05;;
18411;SDS011;27097;51.738;19.472;2022-11-25T01:18:52;29.58;;;11.90;;
18411;SDS011;27097;51.738;19.472;2022-11-25T01:21:20;26.33;;;11.50;;
18411;SDS011;27097;51.738;19.472;2022-11-25T01:23:50;25.52;;;11.20;;
18411;SDS011;27097;51.738;19.472;2022-11-25T01:26:18;27.25;;;11.38;;
18411;SDS011;27097;51.738;19.472;2022-11-25T01:28:47;26.70;;;11.30;;
18411;SDS011;27097;51.738;19.472;2022-11-25T01:31:15;25.67;;;11.63;;
18411;SDS011;27097;51.738;19.472;2022-11-25T01:33:43;28.63;;;11.98;;
18411;SDS011;27097;51.738;19.472;2022-11-25T01:36:11;25.90;;;10.77;;
18411;SDS011;27097;51.738;19.472;2022-11-25T01:38:40;23.08;;;10.55;;
18411;SDS011;27097;51.738;19.472;2022-11-25T01:41:10;22.92;;;10.82;;
18411;SDS011;27097;51.738;19.472;2022-11-25T01:43:39;23.73;;;10.73;;
18411;SDS011;27097;51.738;19.472;2022-11-25T01:46:07;23.83;;;10.77;;
18411;SDS011;27097;51.738;19.472;2022-11-25T01:48:40;23.83;;;11.05;;
18411;SDS011;27097;51.738;19.472;2022-11-25T01:51:15;24.30;;;10.88;;
18411;SDS011;27097;51.738;19.472;2022-11-25T01:53:46;23.58;;;11.05;;
18411;SDS011;27097;51.738;19.472;2022-11-25T01:56:16;25.10;;;10.80;;
18411;SDS011;27097;51.738;19.472;2022-11-25T01:58:43;25.08;;;10.80;;
18411;SDS011;27097;51.738;19.472;2022-11-25T02:01:13;24.77;;;10.80;;
18411;SDS011;27097;51.738;19.472;2022-11-25T02:03:42;22.45;;;11.05;;
18411;SDS011;27097;51.738;19.472;2022-11-25T02:06:14;22.17;;;10.65;;
18411;SDS011;27097;51.738;19.472;2022-11-25T02:08:47;23.98;;;10.88;;
18411;SDS011;27097;51.738;19.472;2022-11-25T02:11:18;24.10;;;11.25;;
18411;SDS011;27097;51.738;19.472;2022-11-25T02:13:47;25.45;;;11.25;;
18411;SDS011;27097;51.738;19.472;2022-11-25T02:16:16;24.65;;;10.93;;
18411;SDS011;27097;51.738;19.472;2022-11-25T02:18:43;25.10;;;11.77;;
18411;SDS011;27097;51.738;19.472;2022-11-25T02:21:12;24.23;;;11.23;;
18411;SDS011;27097;51.738;19.472;2022-11-25T02:23:45;29.58;;;11.45;;
18411;SDS011;27097;51.738;19.472;2022-11-25T02:26:19;22.92;;;10.93;;
18411;SDS011;27097;51.738;19.472;2022-11-25T02:28:46;22.67;;;9.90;;
18411;SDS011;27097;51.738;19.472;2022-11-25T02:31:17;25.73;;;10.48;;
18411;SDS011;27097;51.738;19.472;2022-11-25T02:33:45;24.52;;;10.73;;
18411;SDS011;27097;51.738;19.472;2022-11-25T02:36:13;25.67;;;11.32;;
18411;SDS011;27097;51.738;19.472;2022-11-25T02:38:43;22.52;;;10.93;;
18411;SDS011;27097;51.738;19.472;2022-11-25T02:41:13;21.63;;;9.95;;
18411;SDS011;27097;51.738;19.472;2022-11-25T02:43:45;22.58;;;9.85;;
18411;SDS011;27097;51.738;19.472;2022-11-25T02:46:12;26.48;;;11.27;;
18411;SDS011;27097;51.738;19.472;2022-11-25T02:48:41;23.83;;;10.75;;
18411;SDS011;27097;51.738;19.472;2022-11-25T02:51:10;23.33;;;10.75;;
18411;SDS011;27097;51.738;19.472;2022-11-25T02:53:38;22.65;;;10.68;;
18411;SDS011;27097;51.738;19.472;2022-11-25T02:56:06;23.55;;;10.80;;
18411;SDS011;27097;51.738;19.472;2022-11-25T02:58:33;22.58;;;10.55;;
18411;SDS011;27097;51.738;19.472;2022-11-25T03:01:02;22.70;;;10.25;;
18411;SDS011;27097;51.738;19.472;2022-11-25T03:03:29;23.35;;;11.07;;
18411;SDS011;27097;51.738;19.472;2022-11-25T03:05:56;24.23;;;10.65;;
18411;SDS011;27097;51.738;19.472;2022-11-25T03:08:23;23.85;;;10.75;;
18411;SDS011;27097;51.738;19.472;2022-11-25T03:10:50;26.35;;;11.70;;
18411;SDS011;27097;51.738;19.472;2022-11-25T03:13:16;24.80;;;10.65;;
18411;SDS011;27097;51.738;19.472;2022-11-25T03:15:43;24.55;;;10.88;;
18411;SDS011;27097;51.738;19.472;2022-11-25T03:18:12;24.70;;;11.65;;
18411;SDS011;27097;51.738;19.472;2022-11-25T03:20:39;26.17;;;10.80;;
18411;SDS011;27097;51.738;19.472;2022-11-25T03:23:06;25.20;;;10.60;;
18411;SDS011;27097;51.738;19.472;2022-11-25T03:25:33;24.00;;;11.50;;
18411;SDS011;27097;51.738;19.472;2022-11-25T03:28:00;27.70;;;11.75;;
18411;SDS011;27097;51.738;19.472;2022-11-25T03:30:28;26.05;;;10.52;;
18411;SDS011;27097;51.738;19.472;2022-11-25T03:32:55;25.05;;;10.18;;
18411;SDS011;27097;51.738;19.472;2022-11-25T03:35:24;26.58;;;11.80;;
18411;SDS011;27097;51.738;19.472;2022-11-25T03:37:50;26.52;;;10.68;;
18411;SDS011;27097;51.738;19.472;2022-11-25T03:40:17;26.30;;;11.40;;
18411;SDS011;27097;51.738;19.472;2022-11-25T03:42:44;24.95;;;10.98;;
18411;SDS011;27097;51.738;19.472;2022-11-25T03:45:12;27.75;;;11.13;;
18411;SDS011;27097;51.738;19.472;2022-11-25T03:47:40;21.83;;;10.68;;
18411;SDS011;27097;51.738;19.472;2022-11-25T03:50:08;22.27;;;10.57;;
18411;SDS011;27097;51.738;19.472;2022-11-25T03:52:38;23.48;;;10.32;;
18411;SDS011;27097;51.738;19.472;2022-11-25T03:55:06;22.83;;;10.27;;
18411;SDS011;27097;51.738;19.472;2022-11-25T03:57:33;26.73;;;10.30;;
18411;SDS011;27097;51.738;19.472;2022-11-25T04:00:01;22.17;;;10.05;;
18411;SDS011;27097;51.738;19.472;2022-11-25T04:02:29;22.45;;;10.30;;
18411;SDS011;27097;51.738;19.472;2022-11-25T04:04:56;23.08;;;10.90;;
18411;SDS011;27097;51.738;19.472;2022-11-25T04:07:24;27.52;;;11.55;;
18411;SDS011;27097;51.738;19.472;2022-11-25T04:09:52;28.33;;;11.85;;
18411;SDS011;27097;51.738;19.472;2022-11-25T04:12:19;29.67;;;12.68;;
18411;SDS011;27097;51.738;19.472;2022-11-25T04:15:04;22.00;;;10.27;;
18411;SDS011;27097;51.738;19.472;2022-11-25T04:17:31;22.85;;;9.88;;
18411;SDS011;27097;51.738;19.472;2022-11-25T04:19:58;25.08;;;10.23;;
18411;SDS011;27097;51.738;19.472;2022-11-25T04:22:25;21.23;;;9.43;;
18411;SDS011;27097;51.738;19.472;2022-11-25T04:24:53;19.42;;;8.40;;
18411;SDS011;27097;51.738;19.472;2022-11-25T04:27:20;17.17;;;8.00;;
18411;SDS011;27097;51.738;19.472;2022-11-25T04:29:47;19.42;;;8.30;;
18411;SDS011;27097;51.738;19.472;2022-11-25T04:32:14;17.77;;;8.18;;
18411;SDS011;27097;51.738;19.472;2022-11-25T04:34:41;17.85;;;7.78;;
18411;SDS011;27097;51.738;19.472;2022-11-25T04:37:08;15.93;;;7.50;;
18411;SDS011;27097;51.738;19.472;2022-11-25T04:39:35;15.15;;;7.30;;
18411;SDS011;27097;51.738;19.472;2022-11-25T04:42:03;14.23;;;7.00;;
18411;SDS011;27097;51.738;19.472;2022-11-25T04:44:48;15.23;;;7.13;;
18411;SDS011;27097;51.738;19.472;2022-11-25T04:47:14;16.35;;;7.20;;
18411;SDS011;27097;51.738;19.472;2022-11-25T04:49:42;16.48;;;7.10;;
18411;SDS011;27097;51.738;19.472;2022-11-25T04:52:09;13.63;;;6.97;;
18411;SDS011;27097;51.738;19.472;2022-11-25T04:54:36;16.13;;;6.85;;
18411;SDS011;27097;51.738;19.472;2022-11-25T04:57:04;14.57;;;6.53;;
18411;SDS011;27097;51.738;19.472;2022-11-25T04:59:31;15.68;;;6.13;;
18411;SDS011;27097;51.738;19.472;2022-11-25T05:02:09;12.60;;;6.43;;
18411;SDS011;27097;51.738;19.472;2022-11-25T05:04:39;16.13;;;6.35;;
18411;SDS011;27097;51.738;19.472;2022-11-25T05:07:06;11.43;;;6.20;;
18411;SDS011;27097;51.738;19.472;2022-11-25T05:09:33;13.02;;;6.25;;
18411;SDS011;27097;51.738;19.472;2022-11-25T05:12:00;14.80;;;6.32;;
18411;SDS011;27097;51.738;19.472;2022-11-25T05:14:29;14.65;;;6.32;;
18411;SDS011;27097;51.738;19.472;2022-11-25T05:16:56;13.07;;;6.18;;
18411;SDS011;27097;51.738;19.472;2022-11-25T05:19:23;13.18;;;6.00;;
18411;SDS011;27097;51.738;19.472;2022-11-25T05:21:50;13.10;;;5.47;;
18411;SDS011;27097;51.738;19.472;2022-11-25T05:24:17;11.73;;;5.40;;
18411;SDS011;27097;51.738;19.472;2022-11-25T05:26:43;12.18;;;5.75;;
18411;SDS011;27097;51.738;19.472;2022-11-25T05:29:10;11.48;;;5.70;;
18411;SDS011;27097;51.738;19.472;2022-11-25T05:31:39;12.13;;;5.82;;
18411;SDS011;27097;51.738;19.472;2022-11-25T05:34:06;10.63;;;5.70;;
18411;SDS011;27097;51.738;19.472;2022-11-25T05:36:33;9.82;;;4.28;;
18411;SDS011;27097;51.738;19.472;2022-11-25T05:39:00;10.50;;;5.13;;
18411;SDS011;27097;51.738;19.472;2022-11-25T05:41:28;18.02;;;5.22;;
18411;SDS011;27097;51.738;19.472;2022-11-25T05:43:55;9.77;;;4.97;;
18411;SDS011;27097;51.738;19.472;2022-11-25T05:46:22;10.82;;;5.03;;
18411;SDS011;27097;51.738;19.472;2022-11-25T05:48:52;9.70;;;4.97;;
18411;SDS011;27097;51.738;19.472;2022-11-25T05:51:20;9.43;;;4.68;;
18411;SDS011;27097;51.738;19.472;2022-11-25T05:53:47;9.73;;;5.13;;
18411;SDS011;27097;51.738;19.472;2022-11-25T05:56:14;11.05;;;4.78;;
18411;SDS011;27097;51.738;19.472;2022-11-25T05:58:41;9.43;;;5.03;;
18411;SDS011;27097;51.738;19.472;2022-11-25T06:01:09;9.85;;;4.85;;
18411;SDS011;27097;51.738;19.472;2022-11-25T06:03:38;9.75;;;5.35;;
18411;SDS011;27097;51.738;19.472;2022-11-25T06:06:07;7.78;;;4.60;;
18411;SDS011;27097;51.738;19.472;2022-11-25T06:08:35;10.02;;;5.03;;
18411;SDS011;27097;51.738;19.472;2022-11-25T06:11:04;10.35;;;4.25;;
18411;SDS011;27097;51.738;19.472;2022-11-25T06:13:31;11.15;;;5.50;;
18411;SDS011;27097;51.738;19.472;2022-11-25T06:15:58;8.65;;;4.60;;
18411;SDS011;27097;51.738;19.472;2022-11-25T06:18:25;10.43;;;4.85;;
18411;SDS011;27097;51.738;19.472;2022-11-25T06:20:56;8.45;;;4.65;;
18411;SDS011;27097;51.738;19.472;2022-11-25T06:23:25;9.95;;;4.97;;
18411;SDS011;27097;51.738;19.472;2022-11-25T06:25:52;7.28;;;4.22;;
18411;SDS011;27097;51.738;19.472;2022-11-25T06:28:27;10.63;;;4.65;;
18411;SDS011;27097;51.738;19.472;2022-11-25T06:30:54;9.15;;;4.93;;
18411;SDS011;27097;51.738;19.472;2022-11-25T06:33:21;7.72;;;4.10;;
18411;SDS011;27097;51.738;19.472;2022-11-25T06:35:48;9.48;;;4.95;;
18411;SDS011;27097;51.738;19.472;2022-11-25T06:38:14;8.68;;;4.68;;
18411;SDS011;27097;51.738;19.472;2022-11-25T06:40:43;6.88;;;3.80;;
18411;SDS011;27097;51.738;19.472;2022-11-25T06:43:10;6.82;;;4.00;;
18411;SDS011;27097;51.738;19.472;2022-11-25T06:45:36;8.15;;;4.35;;
18411;SDS011;27097;51.738;19.472;2022-11-25T06:48:04;8.73;;;4.15;;
18411;SDS011;27097;51.738;19.472;2022-11-25T06:50:31;12.32;;;5.50;;
18411;SDS011;27097;51.738;19.472;2022-11-25T06:52:59;14.00;;;6.85;;
18411;SDS011;27097;51.738;19.472;2022-11-25T06:55:26;12.52;;;6.45;;
18411;SDS011;27097;51.738;19.472;2022-11-25T06:57:54;14.98;;;8.15;;
18411;SDS011;27097;51.738;19.472;2022-11-25T07:00:21;16.83;;;7.97;;
18411;SDS011;27097;51.738;19.472;2022-11-25T07:02:48;16.90;;;7.90;;
18411;SDS011;27097;51.738;19.472;2022-11-25T07:05:15;21.52;;;8.57;;
18411;SDS011;27097;51.738;19.472;2022-11-25T07:07:42;19.25;;;8.63;;
18411;SDS011;27097;51.738;19.472;2022-11-25T07:10:09;19.25;;;8.13;;
18411;SDS011;27097;51.738;19.472;2022-11-25T07:12:36;24.63;;;9.60;;
18411;SDS011;27097;51.738;19.472;2022-11-25T07:15:05;19.67;;;9.38;;
18411;SDS011;27097;51.738;19.472;2022-11-25T07:17:32;19.00;;;8.15;;
18411;SDS011;27097;51.738;19.472;2022-11-25T07:19:59;21.02;;;8.63;;
18411;SDS011;27097;51.738;19.472;2022-11-25T07:22:26;23.75;;;9.15;;
18411;SDS011;27097;51.738;19.472;2022-11-25T07:24:53;19.48;;;8.82;;
18411;SDS011;27097;51.738;19.472;2022-11-25T07:27:20;23.08;;;10.13;;
18411;SDS011;27097;51.738;19.472;2022-11-25T07:29:47;22.60;;;10.25;;
18411;SDS011;27097;51.738;19.472;2022-11-25T07:32:15;19.83;;;10.32;;
18411;SDS011;27097;51.738;19.472;2022-11-25T07:34:42;19.30;;;10.50;;
18411;SDS011;27097;51.738;19.472;2022-11-25T07:37:09;22.50;;;10.90;;
18411;SDS011;27097;51.738;19.472;2022-11-25T07:39:36;29.80;;;10.82;;
18411;SDS011;27097;51.738;19.472;2022-11-25T07:42:03;23.55;;;11.10;;
18411;SDS011;27097;51.738;19.472;2022-11-25T07:44:30;25.55;;;10.88;;
18411;SDS011;27097;51.738;19.472;2022-11-25T07:46:57;23.13;;;11.40;;
18411;SDS011;27097;51.738;19.472;2022-11-25T07:49:25;26.30;;;10.25;;
18411;SDS011;27097;51.738;19.472;2022-11-25T07:51:53;22.77;;;10.57;;
18411;SDS011;27097;51.738;19.472;2022-11-25T07:54:22;27.50;;;11.48;;
18411;SDS011;27097;51.738;19.472;2022-11-25T07:56:49;24.30;;;11.55;;
18411;SDS011;27097;51.738;19.472;2022-11-25T07:59:19;22.20;;;11.38;;
18411;SDS011;27097;51.738;19.472;2022-11-25T08:01:47;22.73;;;11.40;;
18411;SDS011;27097;51.738;19.472;2022-11-25T08:04:15;27.77;;;12.68;;
18411;SDS011;27097;51.738;19.472;2022-11-25T08:06:44;29.30;;;13.05;;
18411;SDS011;27097;51.738;19.472;2022-11-25T08:09:12;32.60;;;13.35;;
18411;SDS011;27097;51.738;19.472;2022-11-25T08:11:42;29.73;;;14.15;;
18411;SDS011;27097;51.738;19.472;2022-11-25T08:14:10;32.35;;;14.07;;
18411;SDS011;27097;51.738;19.472;2022-11-25T08:16:37;30.83;;;14.52;;
18411;SDS011;27097;51.738;19.472;2022-11-25T08:19:06;33.60;;;14.80;;
18411;SDS011;27097;51.738;19.472;2022-11-25T08:21:35;36.72;;;15.48;;
18411;SDS011;27097;51.738;19.472;2022-11-25T08:24:04;32.75;;;14.98;;
18411;SDS011;27097;51.738;19.472;2022-11-25T08:26:32;32.35;;;15.57;;
18411;SDS011;27097;51.738;19.472;2022-11-25T08:29:02;39.75;;;15.55;;
18411;SDS011;27097;51.738;19.472;2022-11-25T08:31:30;32.85;;;14.23;;
18411;SDS011;27097;51.738;19.472;2022-11-25T08:33:58;31.48;;;13.82;;
18411;SDS011;27097;51.738;19.472;2022-11-25T08:36:26;34.22;;;14.38;;
18411;SDS011;27097;51.738;19.472;2022-11-25T08:38:55;31.48;;;14.15;;
18411;SDS011;27097;51.738;19.472;2022-11-25T08:41:27;29.80;;;13.88;;
18411;SDS011;27097;51.738;19.472;2022-11-25T08:43:56;30.25;;;13.98;;
18411;SDS011;27097;51.738;19.472;2022-11-25T08:46:26;33.03;;;13.60;;
18411;SDS011;27097;51.738;19.472;2022-11-25T08:48:54;34.45;;;14.43;;
18411;SDS011;27097;51.738;19.472;2022-11-25T08:51:22;30.52;;;14.40;;
18411;SDS011;27097;51.738;19.472;2022-11-25T08:53:50;30.80;;;14.43;;
18411;SDS011;27097;51.738;19.472;2022-11-25T08:56:18;33.75;;;14.40;;
18411;SDS011;27097;51.738;19.472;2022-11-25T08:58:47;32.63;;;14.60;;
18411;SDS011;27097;51.738;19.472;2022-11-25T09:01:15;33.17;;;15.27;;
18411;SDS011;27097;51.738;19.472;2022-11-25T09:03:44;30.35;;;14.70;;
18411;SDS011;27097;51.738;19.472;2022-11-25T09:06:13;36.30;;;16.30;;
18411;SDS011;27097;51.738;19.472;2022-11-25T09:08:41;32.33;;;15.57;;
18411;SDS011;27097;51.738;19.472;2022-11-25T09:11:09;30.83;;;14.50;;
18411;SDS011;27097;51.738;19.472;2022-11-25T09:13:36;32.40;;;14.63;;
18411;SDS011;27097;51.738;19.472;2022-11-25T09:16:06;31.98;;;14.38;;
18411;SDS011;27097;51.738;19.472;2022-11-25T09:18:34;32.55;;;14.77;;
18411;SDS011;27097;51.738;19.472;2022-11-25T09:21:05;29.20;;;14.40;;
18411;SDS011;27097;51.738;19.472;2022-11-25T09:23:33;31.75;;;14.23;;
18411;SDS011;27097;51.738;19.472;2022-11-25T09:26:00;31.48;;;15.00;;
18411;SDS011;27097;51.738;19.472;2022-11-25T09:28:26;30.65;;;13.85;;
18411;SDS011;27097;51.738;19.472;2022-11-25T09:30:54;34.95;;;15.02;;
18411;SDS011;27097;51.738;19.472;2022-11-25T09:33:22;29.23;;;14.52;;
18411;SDS011;27097;51.738;19.472;2022-11-25T09:35:49;32.55;;;15.73;;
18411;SDS011;27097;51.738;19.472;2022-11-25T09:38:16;30.00;;;14.15;;
18411;SDS011;27097;51.738;19.472;2022-11-25T09:40:46;32.35;;;15.10;;
18411;SDS011;27097;51.738;19.472;2022-11-25T09:43:19;30.27;;;15.10;;
18411;SDS011;27097;51.738;19.472;2022-11-25T09:46:22;34.70;;;15.95;;
18411;SDS011;27097;51.738;19.472;2022-11-25T09:49:11;36.53;;;16.30;;
18411;SDS011;27097;51.738;19.472;2022-11-25T09:51:52;36.20;;;16.80;;
18411;SDS011;27097;51.738;19.472;2022-11-25T09:54:28;37.70;;;17.20;;
18411;SDS011;27097;51.738;19.472;2022-11-25T09:57:02;33.90;;;15.38;;
18411;SDS011;27097;51.738;19.472;2022-11-25T09:59:39;35.80;;;16.23;;
18411;SDS011;27097;51.738;19.472;2022-11-25T10:02:10;35.80;;;15.88;;
18411;SDS011;27097;51.738;19.472;2022-11-25T10:04:44;30.80;;;15.45;;
18411;SDS011;27097;51.738;19.472;2022-11-25T10:07:17;26.95;;;14.57;;
18411;SDS011;27097;51.738;19.472;2022-11-25T10:09:47;27.80;;;14.40;;
18411;SDS011;27097;51.738;19.472;2022-11-25T10:12:16;31.42;;;15.75;;
18411;SDS011;27097;51.738;19.472;2022-11-25T10:14:50;27.15;;;13.85;;
18411;SDS011;27097;51.738;19.472;2022-11-25T10:17:22;26.17;;;14.38;;
18411;SDS011;27097;51.738;19.472;2022-11-25T10:20:01;28.20;;;14.02;;
18411;SDS011;27097;51.738;19.472;2022-11-25T10:22:32;28.15;;;14.25;;
18411;SDS011;27097;51.738;19.472;2022-11-25T10:25:01;27.70;;;14.77;;
18411;SDS011;27097;51.738;19.472;2022-11-25T10:27:35;25.25;;;13.80;;
18411;SDS011;27097;51.738;19.472;2022-11-25T10:30:15;27.60;;;14.18;;
18411;SDS011;27097;51.738;19.472;2022-11-25T10:32:46;26.50;;;14.07;;
18411;SDS011;27097;51.738;19.472;2022-11-25T10:35:26;27.25;;;14.02;;
18411;SDS011;27097;51.738;19.472;2022-11-25T10:37:57;26.55;;;13.40;;
18411;SDS011;27097;51.738;19.472;2022-11-25T10:40:27;24.38;;;13.75;;
18411;SDS011;27097;51.738;19.472;2022-11-25T10:42:54;26.52;;;14.52;;
18411;SDS011;27097;51.738;19.472;2022-11-25T10:45:29;27.33;;;14.02;;
18411;SDS011;27097;51.738;19.472;2022-11-25T10:50:54;27.35;;;13.77;;
18411;SDS011;27097;51.738;19.472;2022-11-25T10:53:38;28.05;;;14.57;;
18411;SDS011;27097;51.738;19.472;2022-11-25T10:56:08;29.15;;;15.45;;
18411;SDS011;27097;51.738;19.472;2022-11-25T10:58:37;31.98;;;16.48;;
18411;SDS011;27097;51.738;19.472;2022-11-25T11:01:12;39.05;;;16.52;;
18411;SDS011;27097;51.738;19.472;2022-11-25T11:03:41;34.40;;;16.15;;
18411;SDS011;27097;51.738;19.472;2022-11-25T11:06:28;36.03;;;17.70;;
18411;SDS011;27097;51.738;19.472;2022-11-25T11:08:57;43.40;;;19.83;;
18411;SDS011;27097;51.738;19.472;2022-11-25T11:11:24;42.67;;;18.83;;
18411;SDS011;27097;51.738;19.472;2022-11-25T11:13:56;42.72;;;20.13;;
18411;SDS011;27097;51.738;19.472;2022-11-25T11:16:29;40.50;;;18.98;;
18411;SDS011;27097;51.738;19.472;2022-11-25T11:18:59;43.03;;;19.67;;
18411;SDS011;27097;51.738;19.472;2022-11-25T11:21:31;43.20;;;20.15;;
18411;SDS011;27097;51.738;19.472;2022-11-25T11:24:00;42.95;;;20.40;;
18411;SDS011;27097;51.738;19.472;2022-11-25T11:26:29;44.47;;;20.38;;
18411;SDS011;27097;51.738;19.472;2022-11-25T11:29:03;41.00;;;19.27;;
18411;SDS011;27097;51.738;19.472;2022-11-25T11:31:32;36.42;;;19.45;;
18411;SDS011;27097;51.738;19.472;2022-11-25T11:34:07;37.22;;;19.80;;
18411;SDS011;27097;51.738;19.472;2022-11-25T11:36:52;38.47;;;19.88;;
18411;SDS011;27097;51.738;19.472;2022-11-25T11:39:38;40.13;;;19.13;;
18411;SDS011;27097;51.738;19.472;2022-11-25T11:42:25;43.10;;;20.05;;
18411;SDS011;27097;51.738;19.472;2022-11-25T11:45:04;37.08;;;18.85;;
18411;SDS011;27097;51.738;19.472;2022-11-25T11:47:52;38.13;;;21.23;;
18411;SDS011;27097;51.738;19.472;2022-11-25T11:50:28;37.05;;;19.75;;
18411;SDS011;27097;51.738;19.472;2022-11-25T11:53:03;36.92;;;19.30;;
18411;SDS011;27097;51.738;19.472;2022-11-25T11:55:42;37.17;;;19.85;;
18411;SDS011;27097;51.738;19.472;2022-11-25T11:58:19;35.03;;;19.05;;
18411;SDS011;27097;51.738;19.472;2022-11-25T12:00:56;35.75;;;18.95;;
18411;SDS011;27097;51.738;19.472;2022-11-25T12:03:29;38.35;;;20.42;;
18411;SDS011;27097;51.738;19.472;2022-11-25T12:06:03;35.97;;;19.73;;
18411;SDS011;27097;51.738;19.472;2022-11-25T12:08:36;35.38;;;20.02;;
18411;SDS011;27097;51.738;19.472;2022-11-25T12:11:10;39.00;;;19.98;;
18411;SDS011;27097;51.738;19.472;2022-11-25T12:13:42;35.38;;;20.02;;
18411;SDS011;27097;51.738;19.472;2022-11-25T12:16:14;35.47;;;20.05;;
18411;SDS011;27097;51.738;19.472;2022-11-25T12:18:46;35.72;;;19.58;;
18411;SDS011;27097;51.738;19.472;2022-11-25T12:21:22;36.13;;;19.90;;
18411;SDS011;27097;51.738;19.472;2022-11-25T12:24:02;38.30;;;19.45;;
18411;SDS011;27097;51.738;19.472;2022-11-25T12:26:35;36.33;;;19.98;;
18411;SDS011;27097;51.738;19.472;2022-11-25T12:29:07;34.40;;;19.52;;
18411;SDS011;27097;51.738;19.472;2022-11-25T12:31:38;36.78;;;19.73;;
18411;SDS011;27097;51.738;19.472;2022-11-25T12:34:10;35.08;;;20.38;;
18411;SDS011;27097;51.738;19.472;2022-11-25T12:36:42;38.38;;;20.63;;
18411;SDS011;27097;51.738;19.472;2022-11-25T12:39:17;37.10;;;19.83;;
18411;SDS011;27097;51.738;19.472;2022-11-25T12:41:50;35.28;;;19.95;;
18411;SDS011;27097;51.738;19.472;2022-11-25T12:44:20;39.38;;;20.38;;
18411;SDS011;27097;51.738;19.472;2022-11-25T12:46:51;36.55;;;19.67;;
18411;SDS011;27097;51.738;19.472;2022-11-25T12:49:20;38.50;;;21.00;;
18411;SDS011;27097;51.738;19.472;2022-11-25T12:54:56;41.75;;;21.13;;
18411;SDS011;27097;51.738;19.472;2022-11-25T13:00:47;34.05;;;20.17;;
18411;SDS011;27097;51.738;19.472;2022-11-25T13:03:56;36.80;;;20.48;;
18411;SDS011;27097;51.738;19.472;2022-11-25T13:06:50;36.75;;;20.10;;
18411;SDS011;27097;51.738;19.472;2022-11-25T13:09:43;34.00;;;19.30;;
18411;SDS011;27097;51.738;19.472;2022-11-25T13:12:24;38.10;;;20.60;;
18411;SDS011;27097;51.738;19.472;2022-11-25T13:15:05;37.10;;;19.73;;
18411;SDS011;27097;51.738;19.472;2022-11-25T13:17:44;34.75;;;19.70;;
18411;SDS011;27097;51.738;19.472;2022-11-25T13:20:26;34.50;;;19.40;;
18411;SDS011;27097;51.738;19.472;2022-11-25T13:23:12;34.92;;;20.23;;
18411;SDS011;27097;51.738;19.472;2022-11-25T13:28:57;35.67;;;19.98;;
18411;SDS011;27097;51.738;19.472;2022-11-25T13:31:29;36.42;;;19.55;;
18411;SDS011;27097;51.738;19.472;2022-11-25T13:33:59;33.53;;;19.23;;
18411;SDS011;27097;51.738;19.472;2022-11-25T13:36:42;36.70;;;19.83;;
18411;SDS011;27097;51.738;19.472;2022-11-25T13:39:12;34.42;;;18.98;;
18411;SDS011;27097;51.738;19.472;2022-11-25T13:41:42;37.42;;;19.92;;
18411;SDS011;27097;51.738;19.472;2022-11-25T13:44:20;35.92;;;20.38;;
18411;SDS011;27097;51.738;19.472;2022-11-25T13:46:52;35.72;;;19.13;;
18411;SDS011;27097;51.738;19.472;2022-11-25T13:49:21;37.63;;;19.70;;
18411;SDS011;27097;51.738;19.472;2022-11-25T13:51:55;34.28;;;19.38;;
18411;SDS011;27097;51.738;19.472;2022-11-25T13:54:24;36.28;;;19.73;;
18411;SDS011;27097;51.738;19.472;2022-11-25T13:59:55;36.28;;;19.92;;
18411;SDS011;27097;51.738;19.472;2022-11-25T14:02:31;33.75;;;19.17;;
18411;SDS011;27097;51.738;19.472;2022-11-25T14:08:19;34.95;;;19.67;;
18411;SDS011;27097;51.738;19.472;2022-11-25T14:10:55;36.60;;;20.45;;
18411;SDS011;27097;51.738;19.472;2022-11-25T14:13:45;37.22;;;20.75;;
18411;SDS011;27097;51.738;19.472;2022-11-25T14:16:37;36.92;;;20.27;;
18411;SDS011;27097;51.738;19.472;2022-11-25T14:22:35;36.10;;;20.55;;
18411;SDS011;27097;51.738;19.472;2022-11-25T14:25:25;36.70;;;20.85;;
18411;SDS011;27097;51.738;19.472;2022-11-25T14:27:55;40.67;;;21.58;;
18411;SDS011;27097;51.738;19.472;2022-11-25T14:30:30;40.15;;;21.17;;
18411;SDS011;27097;51.738;19.472;2022-11-25T14:33:01;41.22;;;22.08;;
18411;SDS011;27097;51.738;19.472;2022-11-25T14:35:33;38.30;;;20.42;;
18411;SDS011;27097;51.738;19.472;2022-11-25T14:38:05;40.63;;;20.80;;
18411;SDS011;27097;51.738;19.472;2022-11-25T14:40:37;35.53;;;19.30;;
18411;SDS011;27097;51.738;19.472;2022-11-25T14:43:11;32.70;;;18.02;;
18411;SDS011;27097;51.738;19.472;2022-11-25T14:45:41;33.97;;;17.90;;
18411;SDS011;27097;51.738;19.472;2022-11-25T14:48:13;30.55;;;17.20;;
18411;SDS011;27097;51.738;19.472;2022-11-25T14:50:52;29.73;;;17.02;;
18411;SDS011;27097;51.738;19.472;2022-11-25T14:53:20;30.17;;;16.27;;
18411;SDS011;27097;51.738;19.472;2022-11-25T14:55:47;31.58;;;15.57;;